Hunter, Oklahoma
Current Conditions -  °F | °C
As of 7:50 AM on Saturday 20 Dec 2014 (Local Time) from KWDG Reporting Station
Haze Haze  
Wind Chill: 32°   Ceiling: 2000
Heat Index: 32°   Visibility: 2.5mi
Dew Point: 32°   Wind: 0mph
Humidity: 100%   Direction: NA
Pressure: 30.19"   Gusts: NA
Location:  36.56°N, 97.66°W
Report Text: KWDG 201350Z 00000KT 2 1/2SM BR OVC020 00/00 A3019
Loading
Personal Weather Stations






























Interactive Weather Map New forecast layout! Learn more

10-Day Weather Forecast

Advertisements
Track Severe Weather on mobile